createdAt,value
2017-03-04T00:00:33.439Z,985.92
2017-03-04T00:00:55.213Z,985.96
2017-03-04T00:01:21.693Z,985.93
2017-03-04T00:01:43.592Z,985.95
2017-03-04T00:02:05.423Z,986.01
2017-03-04T00:02:27.231Z,986.00
2017-03-04T00:02:48.972Z,985.98
2017-03-04T00:03:15.573Z,986.06
2017-03-04T00:03:40.124Z,986.11
2017-03-04T00:04:33.156Z,986.08
2017-03-04T00:05:40.427Z,985.96
2017-03-04T00:06:02.335Z,985.91
2017-03-04T00:06:33.637Z,985.93
2017-03-04T00:06:57.961Z,985.86
2017-03-04T00:07:19.763Z,985.89
2017-03-04T00:07:41.477Z,985.93
2017-03-04T00:08:44.722Z,985.91
2017-03-04T00:09:06.429Z,985.99
2017-03-04T00:09:28.157Z,985.94
2017-03-04T00:09:49.902Z,985.91
2017-03-04T00:10:11.706Z,986.02
2017-03-04T00:10:33.420Z,985.95
2017-03-04T00:11:36.488Z,985.99
2017-03-04T00:11:58.280Z,985.94
2017-03-04T00:13:32.172Z,985.94
2017-03-04T00:13:53.905Z,985.92
2017-03-04T00:14:20.378Z,985.84
2017-03-04T00:14:42.107Z,985.93
2017-03-04T00:15:44.648Z,985.93
2017-03-04T00:16:11.230Z,985.94
2017-03-04T00:16:32.946Z,986.03
2017-03-04T00:16:59.416Z,985.91
2017-03-04T00:17:21.163Z,985.90
2017-03-04T00:17:42.959Z,985.94
2017-03-04T00:18:38.664Z,985.99
2017-03-04T00:19:05.234Z,985.94
2017-03-04T00:19:26.954Z,985.89
2017-03-04T00:19:48.664Z,985.91
2017-03-04T00:20:41.635Z,985.98
2017-03-04T00:21:06.162Z,985.99
2017-03-04T00:21:27.912Z,986.06
2017-03-04T00:21:49.660Z,986.01
2017-03-04T00:22:45.248Z,985.86
2017-03-04T00:23:09.632Z,986.07
2017-03-04T00:23:31.385Z,986.03
2017-03-04T00:23:57.958Z,985.95
2017-03-04T00:24:22.635Z,985.97
2017-03-04T00:24:44.236Z,985.94
2017-03-04T00:25:05.962Z,985.95
2017-03-04T00:26:11.458Z,986.07
2017-03-04T00:26:33.359Z,985.89
2017-03-04T00:26:59.835Z,985.89
2017-03-04T00:27:21.631Z,985.87
2017-03-04T00:27:43.388Z,985.89
2017-03-04T00:28:09.968Z,985.92
2017-03-04T00:28:31.779Z,985.93
2017-03-04T00:28:58.263Z,986.00
2017-03-04T00:29:19.975Z,985.81
2017-03-04T00:30:22.564Z,985.94
2017-03-04T00:30:45.109Z,985.82
2017-03-04T00:31:37.416Z,985.86
2017-03-04T00:31:59.132Z,985.86
2017-03-04T00:32:23.774Z,985.92
2017-03-04T00:32:46.549Z,985.85
2017-03-04T00:33:14.199Z,985.97
2017-03-04T00:33:46.818Z,985.93
2017-03-04T00:36:38.582Z,985.88
2017-03-04T00:37:05.273Z,985.89
2017-03-04T00:38:06.275Z,985.85
2017-03-04T00:38:57.767Z,985.81
2017-03-04T00:39:51.266Z,985.83
2017-03-04T00:40:18.620Z,985.63
2017-03-04T00:40:41.590Z,985.87
2017-03-04T00:41:08.306Z,985.86
2017-03-04T00:42:11.873Z,985.82
2017-03-04T00:42:33.663Z,985.75
2017-03-04T00:42:55.630Z,985.82
2017-03-04T00:43:17.432Z,985.89
2017-03-04T00:43:39.452Z,985.75
2017-03-04T00:44:01.816Z,985.77
2017-03-04T00:45:05.484Z,985.80
2017-03-04T00:46:09.125Z,985.86
2017-03-04T00:47:07.826Z,985.74
2017-03-04T00:47:29.583Z,985.72
2017-03-04T00:47:51.781Z,985.74
2017-03-04T00:48:21.604Z,985.67
2017-03-04T00:48:50.354Z,985.69
2017-03-04T00:49:12.304Z,985.75
2017-03-04T00:49:39.832Z,985.68
2017-03-04T00:50:07.000Z,985.62
2017-03-04T00:50:30.424Z,985.71
2017-03-04T00:50:54.631Z,985.78
2017-03-04T00:51:17.975Z,985.64
2017-03-04T00:51:43.125Z,985.72
2017-03-04T00:52:06.827Z,985.70
2017-03-04T00:52:31.643Z,985.67
2017-03-04T00:53:34.514Z,985.65
2017-03-04T00:54:37.202Z,985.81
2017-03-04T00:55:03.965Z,985.68
2017-03-04T00:55:25.729Z,985.57
2017-03-04T00:55:47.849Z,985.68
2017-03-04T00:56:15.653Z,985.71
2017-03-04T00:56:56.035Z,985.67
2017-03-04T00:57:54.805Z,985.60
2017-03-04T00:58:17.648Z,985.74
2017-03-04T00:58:45.274Z,985.69
2017-03-04T00:59:07.330Z,985.86
2017-03-04T00:59:30.224Z,985.82
2017-03-04T00:59:55.847Z,985.70
2017-03-04T01:01:38.492Z,985.69
2017-03-04T01:03:10.109Z,985.66
2017-03-04T01:03:31.829Z,985.61
2017-03-04T01:03:53.567Z,985.66
2017-03-04T01:04:16.055Z,985.63
2017-03-04T01:05:51.092Z,985.50
2017-03-04T01:06:12.928Z,985.59
2017-03-04T01:06:36.063Z,985.62
2017-03-04T01:06:58.098Z,985.59
2017-03-04T01:07:20.681Z,985.59
2017-03-04T01:07:42.994Z,985.66
2017-03-04T01:08:40.438Z,985.67
2017-03-04T01:09:02.195Z,985.66
2017-03-04T01:09:36.741Z,985.64
2017-03-04T01:10:00.176Z,985.70
2017-03-04T01:10:22.997Z,985.63
2017-03-04T01:10:45.509Z,985.51
2017-03-04T01:11:09.377Z,985.55
2017-03-04T01:12:03.840Z,985.65
2017-03-04T01:12:25.852Z,985.68
2017-03-04T01:12:48.208Z,985.67
2017-03-04T01:13:11.097Z,985.64
2017-03-04T01:13:40.262Z,985.52
2017-03-04T01:14:02.700Z,985.78
2017-03-04T01:14:28.735Z,985.62
2017-03-04T01:14:56.015Z,985.51
2017-03-04T01:15:19.567Z,985.37
2017-03-04T01:15:42.277Z,985.52
2017-03-04T01:16:09.809Z,985.60
2017-03-04T01:16:31.949Z,985.59
2017-03-04T01:17:31.321Z,985.55
2017-03-04T01:19:01.255Z,985.50
2017-03-04T01:19:27.849Z,985.47
2017-03-04T01:20:47.715Z,985.46
2017-03-04T01:21:50.239Z,985.44
2017-03-04T01:22:16.940Z,985.43
2017-03-04T01:22:39.586Z,985.52
2017-03-04T01:23:03.132Z,985.51
2017-03-04T01:23:25.910Z,985.56
2017-03-04T01:23:49.619Z,985.57
2017-03-04T01:24:11.376Z,985.40
2017-03-04T01:24:38.303Z,985.62
2017-03-04T01:25:27.366Z,985.52
2017-03-04T01:25:49.712Z,985.42
2017-03-04T01:26:11.909Z,985.24
2017-03-04T01:26:41.812Z,985.40
2017-03-04T01:27:05.488Z,985.43
2017-03-04T01:28:08.998Z,985.48
2017-03-04T01:29:21.120Z,985.44
2017-03-04T01:30:15.320Z,985.21
2017-03-04T01:30:37.210Z,985.30
2017-03-04T01:31:30.611Z,985.32
2017-03-04T01:32:26.927Z,985.31
2017-03-04T01:32:48.714Z,985.36
2017-03-04T01:33:10.639Z,985.37
2017-03-04T01:33:35.983Z,985.30
2017-03-04T01:33:58.386Z,985.24
2017-03-04T01:34:20.371Z,985.22
2017-03-04T01:34:42.516Z,985.18
2017-03-04T01:35:07.057Z,985.21
2017-03-04T01:35:29.745Z,985.11
2017-03-04T01:35:53.251Z,985.17
2017-03-04T01:36:19.903Z,985.20
2017-03-04T01:37:31.191Z,985.17
2017-03-04T01:37:53.162Z,985.23
2017-03-04T01:38:46.693Z,985.18
2017-03-04T01:39:54.121Z,985.19
2017-03-04T01:41:18.570Z,985.13
2017-03-04T01:41:40.296Z,985.17
2017-03-04T01:42:02.012Z,985.13
2017-03-04T01:42:33.279Z,985.17
2017-03-04T01:42:55.032Z,985.12
2017-03-04T01:43:21.523Z,985.21
2017-03-04T01:43:43.217Z,985.14
2017-03-04T01:44:04.933Z,985.18
2017-03-04T01:44:31.404Z,985.15
2017-03-04T01:44:53.116Z,985.29
2017-03-04T01:45:14.812Z,985.18
2017-03-04T01:45:36.532Z,985.17
2017-03-04T01:45:58.228Z,985.09
2017-03-04T01:46:19.940Z,985.16
2017-03-04T01:46:41.628Z,985.18
2017-03-04T01:47:03.317Z,985.21
2017-03-04T01:47:25.024Z,985.19
2017-03-04T01:47:46.752Z,985.25
2017-03-04T01:48:08.450Z,985.23
2017-03-04T01:48:30.143Z,985.21
2017-03-04T01:49:23.101Z,985.30
2017-03-04T01:49:44.797Z,985.24
2017-03-04T01:50:06.493Z,985.17
2017-03-04T01:50:28.190Z,985.13
2017-03-04T01:51:21.151Z,985.17
2017-03-04T01:51:42.850Z,985.21
2017-03-04T01:52:04.550Z,985.13
2017-03-04T01:52:26.244Z,985.11
2017-03-04T01:52:47.973Z,985.15
2017-03-04T01:53:09.674Z,985.12
2017-03-04T01:53:31.365Z,985.17
2017-03-04T01:53:53.090Z,985.23
2017-03-04T01:54:14.803Z,985.13
2017-03-04T01:54:36.494Z,985.16
2017-03-04T01:54:58.191Z,985.16
2017-03-04T01:55:19.905Z,985.27
2017-03-04T01:55:41.596Z,985.12
2017-03-04T01:56:03.291Z,985.11
2017-03-04T01:56:25.001Z,985.12
2017-03-04T01:57:17.942Z,985.09
2017-03-04T01:57:39.647Z,985.10
2017-03-04T01:58:01.365Z,985.06
2017-03-04T01:58:23.055Z,985.09
2017-03-04T01:58:44.751Z,985.10
2017-03-04T01:59:06.447Z,985.26
2017-03-04T01:59:28.148Z,985.22
2017-03-04T01:59:49.845Z,985.15
2017-03-04T02:00:11.535Z,985.23
2017-03-04T02:00:33.238Z,985.06
2017-03-04T02:00:54.939Z,985.07
2017-03-04T02:01:21.423Z,985.31
2017-03-04T02:01:43.119Z,985.18
2017-03-04T02:02:04.825Z,985.22
2017-03-04T02:02:57.790Z,985.11
2017-03-04T02:03:19.496Z,984.99
2017-03-04T02:03:41.212Z,984.97
2017-03-04T02:04:02.908Z,985.07
2017-03-04T02:04:29.371Z,985.03
2017-03-04T02:04:51.064Z,985.02
2017-03-04T02:05:12.760Z,985.00
2017-03-04T02:05:34.471Z,985.10
2017-03-04T02:05:56.162Z,985.08
2017-03-04T02:06:17.874Z,985.07
2017-03-04T02:06:39.590Z,985.03
2017-03-04T02:07:01.282Z,984.99
2017-03-04T02:07:27.765Z,985.04
2017-03-04T02:07:49.473Z,985.07
2017-03-04T02:08:11.198Z,985.06
2017-03-04T02:08:32.913Z,985.11
2017-03-04T02:09:25.870Z,985.10
2017-03-04T02:09:52.347Z,985.02
2017-03-04T02:10:14.041Z,985.05
2017-03-04T02:10:40.526Z,985.04
2017-03-04T02:11:02.234Z,985.06
2017-03-04T02:11:28.703Z,985.10
2017-03-04T02:11:50.389Z,985.01
2017-03-04T02:12:16.861Z,985.04
2017-03-04T02:12:38.553Z,984.98
2017-03-04T02:13:00.251Z,985.15
2017-03-04T02:13:53.204Z,985.02
2017-03-04T02:14:14.897Z,984.92
2017-03-04T02:14:36.601Z,984.90
2017-03-04T02:14:58.301Z,984.86
2017-03-04T02:15:51.252Z,985.01
2017-03-04T02:16:17.750Z,985.02
2017-03-04T02:16:39.442Z,985.00
2017-03-04T02:17:01.160Z,984.91
2017-03-04T02:17:59.448Z,984.89
2017-03-04T02:18:21.167Z,984.97
2017-03-04T02:18:42.870Z,984.84
2017-03-04T02:19:04.577Z,984.91
2017-03-04T02:19:26.273Z,984.87
2017-03-04T02:19:47.972Z,985.00
2017-03-04T02:20:09.683Z,984.97
2017-03-04T02:20:31.380Z,985.09
2017-03-04T02:20:53.077Z,985.06
2017-03-04T02:21:14.786Z,985.04
2017-03-04T02:21:36.478Z,984.83
2017-03-04T02:21:58.186Z,985.00
2017-03-04T02:22:24.680Z,984.94
2017-03-04T02:22:46.374Z,984.80
2017-03-04T02:23:08.073Z,984.82
2017-03-04T02:23:29.804Z,984.90
2017-03-04T02:23:51.504Z,984.89
2017-03-04T02:24:13.194Z,984.82
2017-03-04T02:24:39.675Z,984.80
2017-03-04T02:25:01.374Z,984.87
2017-03-04T02:25:23.085Z,984.81
2017-03-04T02:25:44.789Z,984.83
2017-03-04T02:26:06.497Z,984.91
2017-03-04T02:26:28.207Z,984.79
2017-03-04T02:26:54.683Z,984.75
2017-03-04T02:27:16.379Z,984.72
2017-03-04T02:27:38.078Z,984.73
2017-03-04T02:27:59.790Z,984.82
2017-03-04T02:28:21.480Z,984.79
2017-03-04T02:28:43.201Z,984.77
2017-03-04T02:29:09.672Z,984.77
2017-03-04T02:29:31.365Z,984.75
2017-03-04T02:29:53.063Z,984.68
2017-03-04T02:30:14.780Z,984.70
2017-03-04T02:30:36.475Z,984.70
2017-03-04T02:30:58.186Z,984.77
2017-03-04T02:31:19.893Z,984.68
2017-03-04T02:31:41.595Z,984.83
2017-03-04T02:32:03.283Z,984.82
2017-03-04T02:32:24.984Z,984.75
2017-03-04T02:32:46.681Z,984.79
2017-03-04T02:33:08.379Z,984.75
2017-03-04T02:33:30.100Z,984.73
2017-03-04T02:33:51.812Z,984.69
2017-03-04T02:34:18.279Z,984.69
2017-03-04T02:34:39.973Z,984.75
2017-03-04T02:35:01.666Z,984.67
2017-03-04T02:35:23.369Z,984.62
2017-03-04T02:35:49.849Z,984.71
2017-03-04T02:36:11.555Z,984.80
2017-03-04T02:36:33.266Z,984.68
2017-03-04T02:36:59.745Z,984.80
2017-03-04T02:37:21.441Z,984.83
2017-03-04T02:37:47.914Z,984.78
2017-03-04T02:38:09.606Z,984.73
2017-03-04T02:38:36.086Z,984.64
2017-03-04T02:38:57.823Z,984.64
2017-03-04T02:39:19.531Z,984.63
2017-03-04T02:39:41.235Z,984.64
2017-03-04T02:40:02.922Z,984.62
2017-03-04T02:40:29.406Z,984.62
2017-03-04T02:40:51.106Z,984.69
2017-03-04T02:41:17.582Z,984.74
2017-03-04T02:41:39.282Z,984.87
2017-03-04T02:42:00.977Z,984.71
2017-03-04T02:42:27.457Z,984.72
2017-03-04T02:42:49.148Z,984.76
2017-03-04T02:43:10.856Z,984.84
2017-03-04T02:43:32.540Z,984.75
2017-03-04T02:43:54.239Z,984.73
2017-03-04T02:44:15.935Z,984.81
2017-03-04T02:45:18.447Z,984.79
2017-03-04T02:45:40.151Z,984.71
2017-03-04T02:46:01.839Z,984.77
2017-03-04T02:46:23.538Z,984.67
2017-03-04T02:47:16.479Z,984.61
2017-03-04T02:47:42.973Z,984.63
2017-03-04T02:48:04.674Z,984.56
2017-03-04T02:48:26.382Z,984.53
2017-03-04T02:48:48.078Z,984.66
2017-03-04T02:49:09.819Z,984.80
2017-03-04T02:49:36.293Z,984.82
2017-03-04T02:49:57.996Z,984.72
2017-03-04T02:50:19.692Z,984.62
2017-03-04T02:50:46.176Z,984.52
2017-03-04T02:51:07.869Z,984.45
2017-03-04T02:51:34.355Z,984.54
2017-03-04T02:51:56.062Z,984.59
2017-03-04T02:52:22.547Z,984.59
2017-03-04T02:52:44.235Z,984.61
2017-03-04T02:53:10.726Z,984.56
2017-03-04T02:53:32.434Z,984.52
2017-03-04T02:53:54.133Z,984.44
2017-03-04T02:54:15.864Z,984.50
2017-03-04T02:54:37.580Z,984.53
2017-03-04T02:54:59.278Z,984.60
2017-03-04T02:55:20.978Z,984.55
2017-03-04T02:55:47.450Z,984.59
2017-03-04T02:56:09.147Z,984.51
2017-03-04T02:56:30.851Z,984.46
2017-03-04T02:56:52.647Z,984.46
2017-03-04T02:57:14.335Z,984.45
2017-03-04T02:57:36.027Z,984.42
2017-03-04T02:57:57.718Z,984.44
2017-03-04T02:58:19.420Z,984.52
2017-03-04T02:58:41.127Z,984.50
2017-03-04T02:59:02.824Z,984.41
2017-03-04T02:59:24.549Z,984.41
2017-03-04T02:59:51.029Z,984.38
2017-03-04T03:00:12.730Z,984.41
2017-03-04T03:00:34.447Z,984.37
2017-03-04T03:00:56.146Z,984.45
2017-03-04T03:01:20.570Z,984.41
2017-03-04T03:01:42.270Z,984.37
2017-03-04T03:02:03.955Z,984.48
2017-03-04T03:02:56.900Z,984.45
2017-03-04T03:03:23.371Z,984.49
2017-03-04T03:03:45.068Z,984.51
2017-03-04T03:04:06.775Z,984.49
2017-03-04T03:04:28.489Z,984.53
2017-03-04T03:04:50.174Z,984.48
2017-03-04T03:05:11.887Z,984.48
2017-03-04T03:05:38.363Z,984.53
2017-03-04T03:06:00.057Z,984.58
2017-03-04T03:06:21.765Z,984.50
2017-03-04T03:06:43.466Z,984.44
2017-03-04T03:07:05.163Z,984.46
2017-03-04T03:07:26.866Z,984.51
2017-03-04T03:07:53.336Z,984.52
2017-03-04T03:08:15.033Z,984.56
2017-03-04T03:08:36.731Z,984.50
2017-03-04T03:08:58.435Z,984.48
2017-03-04T03:09:20.140Z,984.50
2017-03-04T03:09:41.852Z,984.39
2017-03-04T03:10:03.556Z,984.53
2017-03-04T03:10:25.257Z,984.41
2017-03-04T03:10:46.954Z,984.42
2017-03-04T03:11:13.432Z,984.38
2017-03-04T03:11:35.128Z,984.40
2017-03-04T03:11:56.847Z,984.38
2017-03-04T03:12:18.540Z,984.41
2017-03-04T03:12:40.245Z,984.51
2017-03-04T03:13:01.932Z,984.51
2017-03-04T03:13:23.639Z,984.40
2017-03-04T03:13:45.330Z,984.38
2017-03-04T03:14:07.030Z,984.43
2017-03-04T03:14:28.761Z,984.42
2017-03-04T03:14:50.448Z,984.40
2017-03-04T03:15:12.144Z,984.39
2017-03-04T03:15:38.616Z,984.38
2017-03-04T03:16:00.311Z,984.43
2017-03-04T03:16:26.789Z,984.50
2017-03-04T03:16:48.495Z,984.54
2017-03-04T03:17:10.213Z,984.51
2017-03-04T03:17:36.690Z,984.44
2017-03-04T03:17:58.380Z,984.33
2017-03-04T03:18:24.858Z,984.41
2017-03-04T03:18:46.562Z,984.41
2017-03-04T03:19:08.265Z,984.37
2017-03-04T03:19:30.002Z,984.40
2017-03-04T03:19:51.701Z,984.31
2017-03-04T03:20:13.399Z,984.30
2017-03-04T03:20:39.867Z,984.20
2017-03-04T03:21:01.570Z,984.30
2017-03-04T03:21:23.268Z,984.29
2017-03-04T03:21:44.962Z,984.27
2017-03-04T03:22:06.694Z,984.28
2017-03-04T03:22:28.383Z,984.32
2017-03-04T03:22:54.853Z,984.28
2017-03-04T03:23:16.562Z,984.26
2017-03-04T03:23:43.073Z,984.31
2017-03-04T03:24:04.751Z,984.29
2017-03-04T03:24:26.450Z,984.25
2017-03-04T03:24:48.161Z,984.24
2017-03-04T03:25:09.852Z,984.17
2017-03-04T03:25:36.328Z,984.24
2017-03-04T03:25:58.030Z,984.27
2017-03-04T03:26:19.718Z,984.21
2017-03-04T03:26:41.428Z,984.26
2017-03-04T03:27:03.120Z,984.24
2017-03-04T03:27:24.820Z,984.33
2017-03-04T03:27:46.525Z,984.30
2017-03-04T03:28:08.235Z,984.29
2017-03-04T03:28:29.929Z,984.26
2017-03-04T03:28:51.635Z,984.21
2017-03-04T03:29:13.335Z,984.19
2017-03-04T03:29:35.066Z,984.23
2017-03-04T03:30:01.533Z,984.21
2017-03-04T03:30:23.222Z,984.21
2017-03-04T03:31:16.164Z,984.19
2017-03-04T03:32:09.107Z,984.23
2017-03-04T03:32:30.796Z,984.17
2017-03-04T03:32:52.505Z,984.13
2017-03-04T03:33:14.205Z,984.05
2017-03-04T03:33:40.675Z,984.20
2017-03-04T03:34:02.369Z,984.18
2017-03-04T03:34:24.071Z,984.22
2017-03-04T03:34:45.796Z,984.21
2017-03-04T03:35:07.487Z,984.29
2017-03-04T03:35:29.188Z,984.27
2017-03-04T03:35:50.882Z,984.26
2017-03-04T03:36:12.575Z,984.17
2017-03-04T03:36:34.288Z,984.19
2017-03-04T03:37:00.762Z,984.14
2017-03-04T03:37:22.452Z,984.23
2017-03-04T03:37:44.150Z,984.18
2017-03-04T03:38:05.855Z,984.20
2017-03-04T03:38:27.557Z,984.17
2017-03-04T03:38:49.257Z,984.09
2017-03-04T03:39:15.736Z,984.09
2017-03-04T03:39:37.432Z,984.00
2017-03-04T03:39:59.158Z,984.02
2017-03-04T03:40:20.860Z,984.12
2017-03-04T03:40:42.571Z,984.06
2017-03-04T03:41:04.255Z,984.04
2017-03-04T03:41:25.962Z,983.99
2017-03-04T03:41:47.654Z,984.11
2017-03-04T03:42:09.347Z,983.99
2017-03-04T03:42:35.815Z,983.92
2017-03-04T03:42:57.505Z,983.96
2017-03-04T03:43:19.211Z,983.92
2017-03-04T03:43:40.911Z,983.86
2017-03-04T03:44:05.473Z,984.03
2017-03-04T03:44:31.906Z,983.99
2017-03-04T03:44:53.610Z,983.90
2017-03-04T03:45:15.327Z,983.96
2017-03-04T03:45:37.024Z,983.89
2017-03-04T03:45:58.729Z,983.86
2017-03-04T03:46:25.203Z,983.98
2017-03-04T03:46:46.897Z,983.89
2017-03-04T03:47:08.582Z,983.82
2017-03-04T03:47:35.056Z,983.92
2017-03-04T03:47:56.748Z,983.98
2017-03-04T03:48:23.225Z,983.98
2017-03-04T03:48:44.915Z,983.96
2017-03-04T03:49:06.608Z,983.90
2017-03-04T03:49:33.078Z,984.05
2017-03-04T03:49:54.774Z,983.98
2017-03-04T03:50:16.502Z,983.97
2017-03-04T03:50:38.205Z,983.96
2017-03-04T03:51:02.806Z,983.97
2017-03-04T03:51:24.520Z,984.00
2017-03-04T03:51:46.232Z,983.92
2017-03-04T03:52:12.705Z,983.96
2017-03-04T03:52:34.403Z,983.94
2017-03-04T03:52:56.093Z,983.89
2017-03-04T03:53:22.563Z,983.84
2017-03-04T03:53:44.256Z,983.86
2017-03-04T03:54:10.731Z,983.89
2017-03-04T03:54:32.433Z,983.84
2017-03-04T03:54:54.131Z,983.91
2017-03-04T03:55:15.832Z,983.91
2017-03-04T03:55:37.558Z,983.97
2017-03-04T03:56:04.038Z,983.97
2017-03-04T03:56:25.740Z,983.88
2017-03-04T03:56:47.438Z,983.94
2017-03-04T03:57:40.396Z,983.91
2017-03-04T03:58:06.875Z,983.90
2017-03-04T03:58:28.567Z,983.90
2017-03-04T03:59:56.068Z,983.82
2017-03-04T04:00:17.782Z,983.91
2017-03-04T04:00:39.484Z,983.91
2017-03-04T04:01:05.974Z,983.88
2017-03-04T04:01:27.663Z,983.98
2017-03-04T04:01:49.363Z,983.95
2017-03-04T04:02:11.059Z,983.80
2017-03-04T04:02:32.752Z,983.86
2017-03-04T04:02:54.448Z,983.87
2017-03-04T04:03:16.145Z,983.92
2017-03-04T04:03:37.850Z,983.93
2017-03-04T04:03:59.537Z,983.92
2017-03-04T04:04:26.003Z,983.87
2017-03-04T04:04:47.692Z,983.92
2017-03-04T04:05:09.400Z,984.02
2017-03-04T04:05:31.122Z,983.90
2017-03-04T04:05:52.810Z,983.99
2017-03-04T04:06:45.767Z,984.08
2017-03-04T04:07:07.488Z,983.95
2017-03-04T04:07:29.188Z,984.07
2017-03-04T04:07:50.891Z,984.05
2017-03-04T04:08:17.374Z,983.96
2017-03-04T04:08:39.082Z,984.04
2017-03-04T04:09:00.790Z,984.18
2017-03-04T04:09:27.273Z,984.09
2017-03-04T04:09:48.967Z,984.09
2017-03-04T04:10:15.436Z,984.10
2017-03-04T04:10:37.168Z,984.07
2017-03-04T04:11:03.634Z,983.98
2017-03-04T04:11:25.335Z,984.03
2017-03-04T04:11:47.043Z,983.95
2017-03-04T04:13:20.823Z,984.00
2017-03-04T04:13:42.521Z,983.97
2017-03-04T04:14:09.008Z,983.99
2017-03-04T04:14:30.701Z,984.04
2017-03-04T04:14:52.412Z,984.04
2017-03-04T04:15:14.122Z,984.02
2017-03-04T04:15:35.812Z,984.09
2017-03-04T04:15:57.536Z,984.15
2017-03-04T04:16:19.246Z,984.18
2017-03-04T04:16:40.940Z,984.01
2017-03-04T04:17:33.882Z,984.06
2017-03-04T04:18:32.207Z,984.04
2017-03-04T04:18:53.903Z,984.12
2017-03-04T04:19:46.858Z,984.14
2017-03-04T04:20:08.578Z,984.04
2017-03-04T04:20:30.276Z,984.08
2017-03-04T04:20:52.001Z,984.08
2017-03-04T04:21:18.477Z,984.03
2017-03-04T04:21:40.176Z,984.02
2017-03-04T04:22:01.866Z,984.05
2017-03-04T04:22:23.585Z,984.03
2017-03-04T04:22:45.282Z,983.90
2017-03-04T04:23:06.980Z,984.04
2017-03-04T04:23:28.694Z,984.05
2017-03-04T04:23:50.387Z,984.02
2017-03-04T04:24:12.079Z,984.03
2017-03-04T04:24:38.561Z,983.98
2017-03-04T04:25:00.256Z,984.02
2017-03-04T04:25:21.965Z,984.03
2017-03-04T04:25:48.438Z,984.17
2017-03-04T04:26:10.147Z,984.14
2017-03-04T04:26:36.630Z,983.94
2017-03-04T04:26:58.311Z,984.06
2017-03-04T04:27:24.795Z,984.06
2017-03-04T04:27:46.491Z,984.09
2017-03-04T04:28:12.973Z,984.25
2017-03-04T04:28:34.654Z,984.11
2017-03-04T04:28:56.367Z,984.07
2017-03-04T04:29:22.832Z,984.03
2017-03-04T04:29:44.544Z,984.01
2017-03-04T04:30:06.236Z,984.00
2017-03-04T04:30:27.942Z,983.97
2017-03-04T04:30:49.651Z,983.96
2017-03-04T04:31:11.369Z,983.98
2017-03-04T04:32:04.342Z,983.97
2017-03-04T04:33:06.842Z,984.16
2017-03-04T04:33:28.553Z,984.08
2017-03-04T04:33:50.249Z,984.13
2017-03-04T04:34:11.944Z,984.01
2017-03-04T04:34:33.654Z,984.09
2017-03-04T04:34:55.357Z,984.10
2017-03-04T04:35:21.827Z,984.10
2017-03-04T04:35:43.533Z,984.04
2017-03-04T04:36:05.230Z,983.99
2017-03-04T04:36:26.956Z,983.89
2017-03-04T04:36:48.662Z,983.91
2017-03-04T04:37:41.607Z,984.00
2017-03-04T04:38:03.315Z,984.01
2017-03-04T04:38:29.794Z,984.19
2017-03-04T04:38:51.488Z,984.17
2017-03-04T04:39:17.977Z,984.10
2017-03-04T04:39:39.673Z,984.07
2017-03-04T04:40:01.376Z,984.12
2017-03-04T04:40:23.073Z,984.05
2017-03-04T04:40:44.769Z,984.12
2017-03-04T04:41:06.472Z,984.11
2017-03-04T04:41:32.953Z,984.13
2017-03-04T04:41:54.650Z,984.07
2017-03-04T04:42:16.348Z,983.97
2017-03-04T04:42:38.046Z,984.04
2017-03-04T04:42:59.751Z,984.08
2017-03-04T04:43:21.459Z,984.12
2017-03-04T04:43:43.152Z,984.01
2017-03-04T04:44:04.854Z,984.21
2017-03-04T04:44:26.562Z,984.12
2017-03-04T04:44:53.040Z,984.14
2017-03-04T04:45:14.726Z,984.06
2017-03-04T04:45:36.418Z,983.99
2017-03-04T04:46:02.899Z,984.07
2017-03-04T04:46:24.597Z,984.19
2017-03-04T04:46:46.313Z,984.04
2017-03-04T04:47:08.026Z,984.07
2017-03-04T04:47:29.724Z,984.07
2017-03-04T04:47:51.424Z,984.08
2017-03-04T04:48:13.118Z,984.01
2017-03-04T04:48:34.818Z,983.99
2017-03-04T04:48:56.520Z,983.94
2017-03-04T04:49:49.471Z,983.97
2017-03-04T04:50:11.167Z,984.07
2017-03-04T04:50:32.873Z,984.06
2017-03-04T04:50:54.566Z,983.99
2017-03-04T04:51:21.036Z,983.87
2017-03-04T04:51:45.349Z,983.97
2017-03-04T04:52:07.084Z,983.90
2017-03-04T04:52:28.781Z,983.98
2017-03-04T04:52:50.510Z,983.94
2017-03-04T04:53:17.001Z,983.95
2017-03-04T04:53:38.700Z,984.03
2017-03-04T04:54:05.172Z,983.94
2017-03-04T04:54:26.870Z,984.01
2017-03-04T04:54:53.344Z,983.97
2017-03-04T04:55:19.823Z,984.14
2017-03-04T04:55:41.518Z,983.90
2017-03-04T04:56:03.221Z,983.93
2017-03-04T04:56:29.692Z,983.95
2017-03-04T04:56:51.422Z,983.80
2017-03-04T04:57:17.891Z,983.85
2017-03-04T04:57:39.591Z,983.87
2017-03-04T04:58:06.059Z,983.97
2017-03-04T04:58:27.766Z,983.73
2017-03-04T04:58:49.470Z,983.72
2017-03-04T04:59:11.199Z,983.71
2017-03-04T04:59:32.916Z,983.71
2017-03-04T04:59:54.614Z,983.62
2017-03-04T05:00:16.316Z,983.60
2017-03-04T05:00:38.004Z,983.69
2017-03-04T05:00:59.697Z,983.68
2017-03-04T05:01:21.401Z,983.70
2017-03-04T05:02:14.376Z,983.67
2017-03-04T05:02:36.088Z,983.66
2017-03-04T05:03:29.053Z,983.62
2017-03-04T05:03:50.753Z,983.63
2017-03-04T05:04:17.225Z,983.66
2017-03-04T05:04:38.925Z,983.70
2017-03-04T05:05:00.630Z,983.59
2017-03-04T05:05:22.336Z,983.68
2017-03-04T05:05:44.034Z,983.73
2017-03-04T05:06:05.749Z,983.70
2017-03-04T05:06:27.460Z,983.64
2017-03-04T05:06:49.155Z,983.71
2017-03-04T05:07:15.639Z,983.61
2017-03-04T05:07:37.348Z,983.62
2017-03-04T05:08:30.305Z,983.58
2017-03-04T05:08:52.019Z,983.58
2017-03-04T05:09:13.726Z,983.63
2017-03-04T05:09:35.575Z,983.54
2017-03-04T05:10:38.163Z,983.62
2017-03-04T05:11:04.633Z,983.62
2017-03-04T05:11:26.320Z,983.62
2017-03-04T05:11:48.028Z,983.64
2017-03-04T05:12:14.527Z,983.57
2017-03-04T05:12:41.007Z,983.56
2017-03-04T05:13:02.706Z,983.52
2017-03-04T05:13:29.180Z,983.54
2017-03-04T05:13:55.654Z,983.58
2017-03-04T05:14:17.370Z,983.59
2017-03-04T05:14:43.845Z,983.51
2017-03-04T05:15:05.543Z,983.51
2017-03-04T05:15:32.019Z,983.47
2017-03-04T05:15:53.769Z,983.38
2017-03-04T05:16:20.251Z,983.44
2017-03-04T05:16:41.940Z,983.42
2017-03-04T05:17:03.650Z,983.40
2017-03-04T05:17:25.366Z,983.40
2017-03-04T05:18:18.511Z,983.49
2017-03-04T05:19:12.575Z,983.43
2017-03-04T05:19:34.306Z,983.37
2017-03-04T05:20:27.338Z,983.45
2017-03-04T05:21:20.355Z,983.34
2017-03-04T05:22:13.355Z,983.38
2017-03-04T05:23:06.380Z,983.48
2017-03-04T05:23:59.379Z,983.36
2017-03-04T05:24:52.377Z,983.28
2017-03-04T05:25:45.364Z,983.30
2017-03-04T05:26:11.872Z,983.41
2017-03-04T05:26:33.639Z,983.41
2017-03-04T05:26:55.375Z,983.40
2017-03-04T05:27:21.881Z,983.45
2017-03-04T05:27:43.605Z,983.33
2017-03-04T05:28:46.147Z,983.29
2017-03-04T05:29:07.895Z,983.32
2017-03-04T05:29:29.622Z,983.32
2017-03-04T05:29:51.369Z,983.39
2017-03-04T05:31:25.172Z,983.42
2017-03-04T05:31:56.438Z,983.46
2017-03-04T05:32:22.956Z,983.43
2017-03-04T05:32:44.691Z,983.39
2017-03-04T05:33:11.203Z,983.33
2017-03-04T05:33:32.964Z,983.33
2017-03-04T05:33:59.453Z,983.33
2017-03-04T05:34:25.977Z,983.54
2017-03-04T05:34:47.735Z,983.46
2017-03-04T05:35:14.258Z,983.51
2017-03-04T05:35:36.219Z,983.44
2017-03-04T05:37:05.940Z,983.35
2017-03-04T05:37:27.679Z,983.47
2017-03-04T05:37:54.188Z,983.39
2017-03-04T05:38:15.897Z,983.48
2017-03-04T05:38:37.638Z,983.44
2017-03-04T05:39:30.688Z,983.27
2017-03-04T05:39:52.624Z,983.25
2017-03-04T05:40:19.134Z,983.26
2017-03-04T05:40:40.841Z,983.20
2017-03-04T05:41:34.103Z,983.12
2017-03-04T05:42:05.403Z,983.12
2017-03-04T05:42:27.090Z,983.10